Ely Airport Yelland Field
KELY : now visible

Airfield :











YOU CAN JOIN US ON...

 
LOGIN :

Register | Disclaimer

   EN    FR    IT 

 









Legend :    VFR   Marginal VFR   IFR   Intensive IFR   Very Intensive IFR
Visi :
Ceiling :
>= 8 km
>= 3000ft
5 to 8 km
1000 to 3000 ft
1500m to 5 km
500 to 1000 ft
800 to 1500m
200 to 500 ft
< 800m
< 200 ft
Symbols :   Thunderstorms  Fog  Heavy snow  Heavy precipitations  Wind > 20 kt






- Airport Elevation : 6259 ft


KELY - Ely Yelland Field

CURRENT METAR :
  • 301653Z AUTO 00000KT 10SM CLR 19/13 A3031 RMK AO2 SLP171 T01940128

EXPIRED METARs :
  • 301553Z AUTO 01004KT 10SM SCT110 18/13 A3031 RMK AO2 SLP173 T01830128
  • 301453Z AUTO 00000KT 10SM OVC090 17/13 A3030 RMK AO2 SLP173 T01720133 51006

TAF KELY
Valid from the 30 at 12:00 until the 31 at 12:00 UTC


301120Z 3012/3112 VRB06KT P6SM OVC120
FM301900 16009KT P6SM VCTS BKN080CB OVC120
TEMPO 3019/3023 5SM -TSRA SCT060CB BKN080 OVC200
FM310200 18008KT P6SM -SHRA SCT080 OVC120
KZLC FIR / North America



MET'MAP, your aeronautical weather chart ! - Copyright ORBIFLY December 2007 - Disclaimer

ORBIFLY MET'MAP TEAM :

Programming & Development : Alexandra Zaïnal
Concept & original design : Baudouin d'Aumeries
Assistance for programming : Marc-Olivier Méhu
Technical & hardware support : Manuel Goepfert

Contact : metmap@orbifly.com




SOURCES & CREDITS :

   NOAA       Earth
Advisory